Airfield :
LOGIN :

Register | Disclaimer

   EN    FR    IT 

 










Legend :    VFR   Marginal VFR   IFR   Intensive IFR   Very Intensive IFR
Visi :
Ceiling :
>= 8 km
>= 3000ft
5 to 8 km
1000 to 3000 ft
1500m to 5 km
500 to 1000 ft
800 to 1500m
200 to 500 ft
< 800m
< 200 ft
Symbols :   Thunderstorms  Fog  Heavy snow  Heavy precipitations  Wind > 20 kt
SIGMETs :     Misc.  Thunderstorms  Icing  Turbulence  Mountain Waves  Volcanic Ashes






- Airport Elevation : 400 ft
- IATA code : BNX


LQBK - Banja Luka

CURRENT METAR :
  • 292300Z VRB01KT CAVOK 14/14 Q1011 NOSIG

EXPIRED METARs :
  • 292230Z VRB01KT 9999 FEW047 15/15 Q1012 NOSIG
  • 292200Z 17006KT CAVOK 16/15 Q1012 NOSIG
  • 292130Z 16004KT CAVOK 16/15 Q1012 NOSIG
  • 292100Z 16004KT CAVOK 15/15 Q1012 NOSIG
  • 292030Z VRB02KT CAVOK 16/15 Q1012 NOSIG
  • 292000Z VRB02KT CAVOK 16/15 Q1012 NOSIG
  • 291930Z 18002KT CAVOK 17/15 Q1012 NOSIG
  • 291900Z 25003KT CAVOK 18/15 Q1012 NOSIG
  • 291830Z 25005KT CAVOK 19/15 Q1012 NOSIG

TAF TAF LQBK
Valid from the 29 at 18:00 until the 30 at 18:00 UTC


291700Z 2918/3018 22005KT 9999 SCT040 TX25/3012Z TN14/3004Z
PROB30
TEMPO 3002/3006 1200 BCFG
PROB40
TEMPO 3012/3017 22015KT 4000 TSRA FEW035CB SCT040



MET'MAP, your aeronautical weather chart ! - Copyright ORBIFLY December 2007 - Disclaimer

ORBIFLY MET'MAP TEAM :

Programming & Development : Alexandra Zaïnal
Original concept : Baudouin d'Aumeries
Technical & hardware support : Manuel Goepfert
Assistance : Marc-Olivier Méhu




SOURCES & CREDITS :

   NOAA